createdAt,value
2023-01-08T00:01:06.311Z,77.14
2023-01-08T00:03:34.528Z,77.31
2023-01-08T00:06:03.368Z,77.53
2023-01-08T00:08:31.829Z,77.50
2023-01-08T00:11:00.218Z,77.33
2023-01-08T00:13:29.687Z,77.63
2023-01-08T00:16:03.934Z,77.64
2023-01-08T00:18:31.897Z,77.42
2023-01-08T00:20:59.918Z,77.16
2023-01-08T00:23:28.279Z,77.56
2023-01-08T00:25:58.193Z,77.58
2023-01-08T00:28:26.216Z,77.78
2023-01-08T00:30:55.381Z,78.19
2023-01-08T00:33:23.203Z,77.92
2023-01-08T00:35:51.082Z,78.41
2023-01-08T00:38:18.882Z,77.88
2023-01-08T00:40:46.733Z,78.28
2023-01-08T00:43:14.477Z,78.34
2023-01-08T00:45:43.348Z,78.37
2023-01-08T00:48:14.901Z,78.58
2023-01-08T00:50:42.787Z,78.31
2023-01-08T00:53:10.611Z,77.61
2023-01-08T00:55:38.580Z,77.52
2023-01-08T00:58:06.317Z,76.93
2023-01-08T01:00:34.145Z,77.46
2023-01-08T01:03:01.881Z,76.92
2023-01-08T01:05:33.451Z,76.88
2023-01-08T01:08:01.262Z,76.60
2023-01-08T01:10:28.965Z,76.65
2023-01-08T01:12:56.777Z,77.85
2023-01-08T01:15:24.509Z,77.26
2023-01-08T01:17:52.348Z,77.07
2023-01-08T01:20:20.247Z,76.76
2023-01-08T01:22:49.282Z,77.35
2023-01-08T01:25:19.384Z,76.93
2023-01-08T01:27:47.210Z,76.44
2023-01-08T01:30:17.205Z,77.74
2023-01-08T01:32:44.955Z,77.38
2023-01-08T01:35:12.960Z,77.80
2023-01-08T01:37:40.712Z,78.16
2023-01-08T01:40:11.145Z,77.79
2023-01-08T01:42:41.600Z,77.82
2023-01-08T01:45:21.260Z,77.18
2023-01-08T01:47:53.593Z,77.53
2023-01-08T01:50:26.923Z,76.83
2023-01-08T01:53:00.264Z,76.85
2023-01-08T01:55:30.132Z,78.21
2023-01-08T01:58:04.469Z,79.11
2023-01-08T02:00:33.956Z,79.61
2023-01-08T02:03:02.186Z,81.24
2023-01-08T02:05:41.780Z,81.24
2023-01-08T02:08:13.737Z,81.35
2023-01-08T02:10:49.964Z,80.74
2023-01-08T02:13:28.660Z,80.42
2023-01-08T02:16:01.477Z,80.18
2023-01-08T02:18:36.870Z,80.48
2023-01-08T02:21:09.939Z,81.09
2023-01-08T02:23:47.209Z,79.77
2023-01-08T02:26:21.056Z,78.52
2023-01-08T02:28:54.172Z,78.05
2023-01-08T02:31:24.830Z,78.22
2023-01-08T02:33:55.300Z,77.10
2023-01-08T02:36:37.144Z,77.11
2023-01-08T02:39:15.596Z,77.16
2023-01-08T02:42:02.747Z,76.77
2023-01-08T02:44:46.093Z,77.55
2023-01-08T02:47:25.857Z,77.12
2023-01-08T02:50:03.508Z,77.43
2023-01-08T02:52:33.718Z,77.28
2023-01-08T02:55:04.525Z,76.76
2023-01-08T02:57:35.315Z,76.25
2023-01-08T03:00:06.225Z,77.15
2023-01-08T03:02:38.543Z,78.04
2023-01-08T03:05:13.138Z,77.72
2023-01-08T03:07:41.319Z,77.95
2023-01-08T03:10:09.743Z,76.88
2023-01-08T03:12:47.036Z,76.48
2023-01-08T03:15:22.253Z,76.54
2023-01-08T03:17:53.915Z,76.61
2023-01-08T03:20:24.259Z,76.18
2023-01-08T03:22:55.668Z,76.57
2023-01-08T03:25:25.540Z,75.95
2023-01-08T03:27:57.723Z,75.59
2023-01-08T03:30:26.527Z,76.92
2023-01-08T03:32:56.803Z,77.17
2023-01-08T03:35:26.060Z,77.93
2023-01-08T03:37:58.217Z,77.18
2023-01-08T03:40:30.440Z,76.31
2023-01-08T03:42:59.623Z,75.83
2023-01-08T03:45:31.181Z,76.11
2023-01-08T03:48:02.150Z,75.90
2023-01-08T03:50:33.377Z,76.11
2023-01-08T03:53:01.258Z,76.49
2023-01-08T03:55:29.107Z,76.45
2023-01-08T03:58:00.391Z,76.21
2023-01-08T04:00:28.268Z,76.09
2023-01-08T04:02:58.285Z,75.37
2023-01-08T04:05:26.160Z,75.44
2023-01-08T04:07:56.157Z,75.36
2023-01-08T04:10:23.877Z,75.61
2023-01-08T04:12:51.698Z,76.02
2023-01-08T04:15:20.963Z,76.36
2023-01-08T04:17:48.754Z,75.99
2023-01-08T04:20:16.925Z,75.27
2023-01-08T04:22:44.676Z,75.87
2023-01-08T04:25:14.514Z,75.96
2023-01-08T04:27:42.208Z,75.65
2023-01-08T04:30:11.527Z,75.90
2023-01-08T04:32:42.985Z,75.73
2023-01-08T04:35:11.313Z,75.29
2023-01-08T04:37:39.025Z,75.04
2023-01-08T04:40:07.988Z,75.03
2023-01-08T04:42:35.677Z,74.84
2023-01-08T04:45:03.554Z,74.94
2023-01-08T04:47:31.485Z,74.83
2023-01-08T04:50:00.728Z,75.49
2023-01-08T04:52:29.344Z,75.91
2023-01-08T04:54:57.115Z,75.29
2023-01-08T04:57:24.810Z,75.65
2023-01-08T04:59:52.625Z,75.61
2023-01-08T05:02:20.610Z,74.77
2023-01-08T05:04:48.971Z,74.25
2023-01-08T05:07:20.369Z,73.65
2023-01-08T05:09:48.053Z,73.07
2023-01-08T05:12:15.877Z,72.72
2023-01-08T05:14:43.587Z,71.73
2023-01-08T05:17:11.361Z,71.33
2023-01-08T05:19:39.087Z,71.46
2023-01-08T05:22:06.822Z,71.52
2023-01-08T05:24:36.344Z,71.46
2023-01-08T05:27:04.027Z,71.51
2023-01-08T05:29:31.808Z,71.76
2023-01-08T05:32:01.940Z,71.45
2023-01-08T05:34:29.926Z,71.49
2023-01-08T05:36:57.709Z,71.28
2023-01-08T05:39:27.544Z,71.60
2023-01-08T05:41:56.552Z,71.95
2023-01-08T05:44:24.330Z,72.76
2023-01-08T05:46:54.186Z,72.74
2023-01-08T05:49:23.844Z,73.25
2023-01-08T05:51:51.598Z,73.65
2023-01-08T05:54:19.527Z,74.10
2023-01-08T05:56:47.324Z,75.60
2023-01-08T05:59:16.458Z,76.41
2023-01-08T06:01:44.226Z,76.99
2023-01-08T06:04:11.932Z,77.64
2023-01-08T06:06:39.738Z,77.33
2023-01-08T06:09:07.523Z,77.67
2023-01-08T06:11:35.288Z,77.91
2023-01-08T06:14:03.100Z,77.86
2023-01-08T06:16:32.141Z,78.42
2023-01-08T06:18:59.882Z,77.69
2023-01-08T06:21:27.628Z,77.46
2023-01-08T06:23:57.949Z,77.61
2023-01-08T06:26:25.722Z,78.32
2023-01-08T06:28:53.451Z,78.01
2023-01-08T06:31:21.222Z,77.87
2023-01-08T06:33:50.544Z,77.17
2023-01-08T06:36:18.316Z,77.10
2023-01-08T06:38:46.114Z,77.32
2023-01-08T06:41:13.905Z,76.87
2023-01-08T06:43:41.628Z,76.53
2023-01-08T06:46:10.679Z,76.67
2023-01-08T06:48:38.593Z,76.12
2023-01-08T06:51:07.894Z,76.22
2023-01-08T06:53:35.765Z,75.96
2023-01-08T06:56:04.719Z,76.44
2023-01-08T06:58:32.642Z,76.12
2023-01-08T07:01:00.622Z,75.57
2023-01-08T07:03:28.595Z,75.20
2023-01-08T07:05:56.423Z,75.06
2023-01-08T07:08:27.877Z,75.26
2023-01-08T07:10:55.981Z,75.16
2023-01-08T07:13:24.259Z,74.98
2023-01-08T07:15:52.044Z,74.93
2023-01-08T07:18:19.885Z,75.27
2023-01-08T07:20:49.308Z,75.80
2023-01-08T07:23:17.128Z,75.71
2023-01-08T07:25:47.466Z,75.30
2023-01-08T07:28:15.294Z,75.26
2023-01-08T07:30:43.249Z,75.42
2023-01-08T07:33:10.990Z,76.11
2023-01-08T07:35:39.314Z,77.00
2023-01-08T07:38:07.131Z,77.33
2023-01-08T07:40:39.362Z,78.07
2023-01-08T07:43:12.344Z,78.84
2023-01-08T07:45:40.558Z,78.89
2023-01-08T07:48:10.559Z,79.02
2023-01-08T07:50:41.420Z,78.84
2023-01-08T07:53:09.898Z,79.40
2023-01-08T07:55:37.789Z,80.20
2023-01-08T07:58:11.061Z,80.24
2023-01-08T08:00:39.392Z,80.20
2023-01-08T08:03:09.253Z,80.54
2023-01-08T08:05:37.052Z,79.99
2023-01-08T08:08:09.679Z,80.35
2023-01-08T08:10:37.857Z,80.38
2023-01-08T08:13:05.812Z,80.82
2023-01-08T08:15:35.662Z,81.50
2023-01-08T08:18:03.687Z,81.55
2023-01-08T08:20:31.925Z,81.43
2023-01-08T08:23:03.155Z,81.94
2023-01-08T08:25:31.944Z,81.88
2023-01-08T08:28:01.645Z,82.55
2023-01-08T08:30:31.272Z,82.55
2023-01-08T08:33:02.211Z,82.53
2023-01-08T08:35:31.698Z,82.36
2023-01-08T08:37:59.774Z,82.30
2023-01-08T08:40:28.359Z,82.21
2023-01-08T08:42:57.526Z,82.05
2023-01-08T08:45:25.702Z,81.59
2023-01-08T08:47:53.528Z,81.69
2023-01-08T08:50:23.436Z,82.55
2023-01-08T08:52:51.256Z,82.17
2023-01-08T08:55:19.319Z,81.99
2023-01-08T08:57:47.976Z,81.87
2023-01-08T09:00:16.986Z,82.66
2023-01-08T09:02:45.033Z,82.36
2023-01-08T09:05:13.523Z,82.16
2023-01-08T09:07:42.665Z,82.68
2023-01-08T09:10:10.618Z,81.56
2023-01-08T09:12:38.442Z,81.27
2023-01-08T09:15:07.100Z,81.48
2023-01-08T09:17:36.833Z,81.04
2023-01-08T09:20:05.924Z,81.09
2023-01-08T09:22:34.019Z,80.81
2023-01-08T09:25:05.974Z,80.79
2023-01-08T09:27:33.710Z,80.43
2023-01-08T09:30:01.453Z,80.82
2023-01-08T09:32:29.289Z,80.73
2023-01-08T09:34:57.221Z,80.20
2023-01-08T09:37:25.231Z,80.19
2023-01-08T09:40:01.771Z,79.81
2023-01-08T09:42:32.917Z,80.21
2023-01-08T09:45:03.652Z,79.46
2023-01-08T09:47:37.278Z,79.63
2023-01-08T09:50:09.253Z,79.52
2023-01-08T09:52:39.680Z,78.96
2023-01-08T09:55:14.942Z,79.54
2023-01-08T09:57:48.242Z,78.91
2023-01-08T10:00:18.709Z,78.54
2023-01-08T10:02:46.760Z,78.61
2023-01-08T10:05:16.543Z,78.39
2023-01-08T10:07:45.058Z,78.46
2023-01-08T10:10:19.616Z,78.05
2023-01-08T10:12:50.411Z,78.30
2023-01-08T10:15:21.179Z,77.75
2023-01-08T10:18:00.096Z,77.65
2023-01-08T10:20:28.889Z,77.79
2023-01-08T10:22:57.020Z,77.22
2023-01-08T10:25:29.080Z,77.05
2023-01-08T10:28:03.162Z,76.98
2023-01-08T10:30:38.101Z,76.86
2023-01-08T10:33:11.837Z,76.47
2023-01-08T10:35:41.516Z,76.54
2023-01-08T10:38:26.670Z,76.21
2023-01-08T10:40:54.741Z,75.91
2023-01-08T10:43:29.465Z,76.12
2023-01-08T10:46:00.503Z,75.56
2023-01-08T10:48:36.463Z,75.76
2023-01-08T10:51:17.018Z,75.79
2023-01-08T10:53:45.276Z,76.17
2023-01-08T10:56:24.294Z,75.93
2023-01-08T10:58:54.136Z,76.18
2023-01-08T11:05:43.065Z,75.42
2023-01-08T11:08:17.793Z,75.02
2023-01-08T11:15:07.210Z,74.74
2023-01-08T11:17:35.674Z,74.14
2023-01-08T11:20:20.023Z,74.68
2023-01-08T11:22:47.891Z,74.54
2023-01-08T11:25:26.638Z,74.17
2023-01-08T11:27:56.435Z,74.38
2023-01-08T11:30:32.384Z,74.57
2023-01-08T11:33:05.848Z,74.33
2023-01-08T11:35:38.773Z,73.68
2023-01-08T11:38:08.263Z,73.61
2023-01-08T11:40:52.303Z,73.53
2023-01-08T11:43:30.686Z,73.39
2023-01-08T11:46:21.493Z,72.82
2023-01-08T11:49:10.414Z,72.98
2023-01-08T11:51:49.889Z,72.62
2023-01-08T11:54:32.861Z,72.67
2023-01-08T12:01:38.707Z,72.58
2023-01-08T12:04:24.350Z,73.32
2023-01-08T12:26:04.980Z,72.73
2023-01-08T12:28:59.476Z,72.25
2023-01-08T12:32:01.570Z,72.77
2023-01-08T12:34:39.582Z,72.85
2023-01-08T12:37:14.481Z,72.74
2023-01-08T12:39:48.931Z,72.29
2023-01-08T12:42:24.508Z,72.06
2023-01-08T12:44:55.108Z,71.72
2023-01-08T12:47:27.902Z,72.26
2023-01-08T12:50:05.376Z,71.56
2023-01-08T12:52:40.433Z,71.81
2023-01-08T12:55:22.456Z,71.49
2023-01-08T12:58:01.586Z,71.07
2023-01-08T13:00:37.609Z,71.60
2023-01-08T13:03:14.941Z,71.89
2023-01-08T13:05:48.391Z,71.47
2023-01-08T13:08:34.439Z,71.47
2023-01-08T13:11:03.945Z,71.38
2023-01-08T13:13:36.545Z,70.93
2023-01-08T13:16:10.179Z,71.11
2023-01-08T13:18:39.886Z,71.29
2023-01-08T13:21:12.366Z,71.02
2023-01-08T13:23:40.459Z,70.95
2023-01-08T13:26:08.583Z,70.87
2023-01-08T13:28:46.008Z,70.74
2023-01-08T13:31:28.430Z,71.17
2023-01-08T13:33:56.797Z,71.89
2023-01-08T13:36:26.997Z,71.57
2023-01-08T13:39:19.316Z,72.07
2023-01-08T13:41:59.527Z,72.07
2023-01-08T13:44:31.106Z,72.30
2023-01-08T13:47:03.067Z,71.58
2023-01-08T13:49:36.788Z,71.80
2023-01-08T13:52:05.189Z,72.25
2023-01-08T13:54:38.515Z,71.72
2023-01-08T13:57:13.511Z,71.43
2023-01-08T13:59:49.136Z,71.48
2023-01-08T14:02:26.531Z,70.77
2023-01-08T14:04:55.578Z,70.34
2023-01-08T14:07:24.940Z,69.24
2023-01-08T14:09:53.091Z,67.14
2023-01-08T14:12:23.698Z,67.19
2023-01-08T14:14:58.802Z,66.84
2023-01-08T14:17:32.329Z,67.13
2023-01-08T14:20:00.666Z,65.88
2023-01-08T14:22:33.089Z,66.65
2023-01-08T14:25:07.823Z,66.65
2023-01-08T14:27:36.352Z,66.93
2023-01-08T14:30:17.093Z,68.14
2023-01-08T14:32:46.388Z,68.44
2023-01-08T14:35:18.083Z,68.45
2023-01-08T14:37:46.007Z,68.97
2023-01-08T14:40:18.717Z,68.38
2023-01-08T14:42:53.017Z,68.37
2023-01-08T14:45:48.650Z,68.88
2023-01-08T14:48:26.044Z,68.31
2023-01-08T14:51:05.694Z,68.37
2023-01-08T14:53:36.706Z,68.50
2023-01-08T14:56:06.679Z,68.40
2023-01-08T14:58:40.173Z,68.72
2023-01-08T15:01:17.019Z,68.75
2023-01-08T15:03:46.690Z,68.76
2023-01-08T15:06:25.398Z,68.56
2023-01-08T15:08:53.937Z,68.79
2023-01-08T15:11:24.591Z,68.75
2023-01-08T15:13:54.402Z,68.89
2023-01-08T15:16:29.679Z,69.12
2023-01-08T15:19:04.157Z,69.08
2023-01-08T15:21:32.558Z,68.91
2023-01-08T15:24:02.192Z,69.16
2023-01-08T15:26:53.502Z,68.79
2023-01-08T15:29:46.868Z,68.61
2023-01-08T15:32:23.699Z,69.00
2023-01-08T15:34:51.654Z,69.00
2023-01-08T15:37:19.511Z,68.87
2023-01-08T15:39:47.507Z,69.11
2023-01-08T15:42:38.441Z,68.87
2023-01-08T15:45:08.420Z,68.66
2023-01-08T15:47:37.703Z,68.97
2023-01-08T15:50:06.885Z,68.95
2023-01-08T15:52:35.759Z,68.93
2023-01-08T15:55:05.613Z,68.85
2023-01-08T15:57:33.535Z,68.62
2023-01-08T16:00:02.516Z,68.38
2023-01-08T16:02:46.246Z,68.58
2023-01-08T16:05:15.158Z,68.38
2023-01-08T16:07:42.926Z,68.17
2023-01-08T16:10:11.234Z,68.82
2023-01-08T16:12:39.220Z,68.84
2023-01-08T16:15:08.665Z,69.06
2023-01-08T16:17:36.633Z,69.46
2023-01-08T16:20:06.458Z,68.95
2023-01-08T16:22:36.401Z,68.77
2023-01-08T16:25:04.712Z,68.54
2023-01-08T16:27:35.421Z,68.91
2023-01-08T16:30:07.905Z,68.88
2023-01-08T16:32:35.738Z,69.03
2023-01-08T16:35:05.149Z,69.35
2023-01-08T16:37:33.043Z,69.01
2023-01-08T16:40:02.979Z,69.28
2023-01-08T16:42:30.863Z,69.00
2023-01-08T16:44:58.731Z,69.31
2023-01-08T16:47:26.599Z,69.17
2023-01-08T16:49:54.426Z,69.03
2023-01-08T16:52:23.804Z,69.53
2023-01-08T16:54:51.699Z,69.54
2023-01-08T16:57:19.603Z,69.58
2023-01-08T16:59:47.528Z,69.51
2023-01-08T17:02:15.388Z,69.80
2023-01-08T17:04:45.947Z,70.14
2023-01-08T17:07:14.459Z,70.42
2023-01-08T17:09:43.848Z,70.64
2023-01-08T17:12:11.708Z,70.76
2023-01-08T17:14:39.587Z,70.76
2023-01-08T17:17:07.415Z,70.80
2023-01-08T17:19:35.318Z,70.54
2023-01-08T17:22:03.176Z,70.67
2023-01-08T17:24:31.087Z,71.08
2023-01-08T17:27:00.277Z,71.26
2023-01-08T17:29:28.246Z,70.98
2023-01-08T17:31:56.027Z,70.95
2023-01-08T17:34:23.797Z,71.39
2023-01-08T17:36:51.603Z,71.71
2023-01-08T17:39:19.481Z,71.83
2023-01-08T17:42:04.702Z,72.10
2023-01-08T17:44:34.228Z,72.26
2023-01-08T17:47:02.180Z,72.70
2023-01-08T17:49:30.958Z,73.05
2023-01-08T17:51:58.848Z,73.22
2023-01-08T17:54:26.670Z,75.01
2023-01-08T17:56:54.634Z,74.97
2023-01-08T17:59:22.580Z,73.64
2023-01-08T18:01:53.755Z,73.69
2023-01-08T18:04:21.917Z,73.34
2023-01-08T18:06:50.025Z,73.53
2023-01-08T18:09:18.606Z,74.11
2023-01-08T18:11:49.013Z,74.36
2023-01-08T18:14:17.972Z,74.05
2023-01-08T18:16:46.099Z,74.38
2023-01-08T18:19:16.655Z,74.09
2023-01-08T18:21:45.499Z,74.37
2023-01-08T18:24:14.213Z,74.55
2023-01-08T18:26:42.960Z,75.02
2023-01-08T18:29:10.796Z,74.75
2023-01-08T18:31:38.823Z,74.59
2023-01-08T18:34:06.807Z,74.55
2023-01-08T18:36:36.714Z,74.36
2023-01-08T18:39:04.700Z,74.76
2023-01-08T18:41:50.242Z,74.59
2023-01-08T18:44:18.054Z,74.32
2023-01-08T18:46:48.020Z,74.81
2023-01-08T18:49:16.503Z,74.75
2023-01-08T18:51:45.768Z,74.42
2023-01-08T18:54:16.923Z,74.67
2023-01-08T18:56:46.392Z,75.21
2023-01-08T18:59:14.540Z,75.51
2023-01-08T19:01:44.828Z,75.91
2023-01-08T19:04:17.056Z,76.48
2023-01-08T19:06:46.661Z,76.46
2023-01-08T19:09:16.291Z,76.16
2023-01-08T19:11:44.441Z,76.19
2023-01-08T19:14:13.287Z,75.72
2023-01-08T19:16:43.221Z,76.13
2023-01-08T19:19:11.417Z,75.34
2023-01-08T19:21:39.416Z,75.16
2023-01-08T19:24:09.346Z,75.67
2023-01-08T19:26:39.603Z,75.80
2023-01-08T19:29:07.817Z,75.10
2023-01-08T19:31:36.011Z,75.21
2023-01-08T19:34:04.687Z,75.13
2023-01-08T19:36:33.978Z,76.03
2023-01-08T19:39:02.035Z,75.34
2023-01-08T19:41:48.899Z,75.55
2023-01-08T19:44:16.810Z,75.39
2023-01-08T19:46:44.589Z,75.44
2023-01-08T19:49:12.390Z,75.59
2023-01-08T19:51:40.423Z,75.57
2023-01-08T19:54:08.551Z,75.62
2023-01-08T19:56:37.817Z,76.02
2023-01-08T19:59:05.856Z,76.54
2023-01-08T20:01:34.087Z,76.75
2023-01-08T20:04:02.002Z,76.85
2023-01-08T20:06:29.852Z,76.38
2023-01-08T20:08:58.942Z,76.31
2023-01-08T20:11:27.429Z,76.55
2023-01-08T20:14:00.378Z,77.44
2023-01-08T20:16:29.682Z,76.96
2023-01-08T20:18:59.242Z,77.27
2023-01-08T20:21:27.109Z,76.95
2023-01-08T20:23:59.157Z,77.72
2023-01-08T20:26:28.508Z,78.20
2023-01-08T20:28:59.054Z,79.27
2023-01-08T20:31:30.673Z,80.29
2023-01-08T20:34:00.164Z,80.35
2023-01-08T20:36:29.889Z,81.38
2023-01-08T20:38:59.690Z,82.54
2023-01-08T20:41:30.096Z,83.80
2023-01-08T20:43:59.337Z,84.53
2023-01-08T20:46:29.413Z,84.68
2023-01-08T20:48:59.640Z,84.56
2023-01-08T20:51:27.513Z,84.50
2023-01-08T20:53:57.945Z,85.00
2023-01-08T20:56:25.743Z,86.12
2023-01-08T20:58:53.639Z,86.68
2023-01-08T21:01:25.174Z,87.69
2023-01-08T21:03:55.951Z,87.43
2023-01-08T21:06:26.389Z,87.99
2023-01-08T21:08:55.944Z,88.25
2023-01-08T21:11:24.933Z,88.11
2023-01-08T21:13:52.961Z,88.82
2023-01-08T21:16:24.884Z,88.13
2023-01-08T21:18:54.128Z,87.88
2023-01-08T21:21:24.067Z,87.59
2023-01-08T21:23:51.994Z,87.12
2023-01-08T21:26:20.280Z,88.70
2023-01-08T21:28:49.769Z,89.29
2023-01-08T21:31:19.568Z,88.58
2023-01-08T21:33:49.971Z,87.77
2023-01-08T21:36:19.514Z,88.23
2023-01-08T21:38:48.025Z,87.66
2023-01-08T21:41:32.350Z,87.81
2023-01-08T21:44:17.746Z,87.87
2023-01-08T21:46:45.820Z,87.78
2023-01-08T21:49:15.368Z,88.41
2023-01-08T21:52:00.577Z,88.65
2023-01-08T21:54:28.372Z,88.73
2023-01-08T21:56:56.190Z,88.62
2023-01-08T21:59:24.032Z,88.96
2023-01-08T22:01:52.012Z,90.23
2023-01-08T22:04:21.353Z,90.63
2023-01-08T22:06:49.128Z,91.83
2023-01-08T22:09:16.988Z,92.10
2023-01-08T22:11:47.131Z,93.13
2023-01-08T22:14:14.951Z,93.33
2023-01-08T22:16:42.758Z,94.15
2023-01-08T22:19:11.109Z,93.91
2023-01-08T22:21:40.180Z,93.81
2023-01-08T22:24:08.215Z,95.54
2023-01-08T22:26:36.101Z,95.43
2023-01-08T22:29:06.911Z,96.96
2023-01-08T22:31:35.360Z,97.02
2023-01-08T22:34:03.184Z,97.64
2023-01-08T22:36:33.363Z,97.69
2023-01-08T22:39:02.587Z,97.38
2023-01-08T22:41:30.455Z,96.82
2023-01-08T22:43:58.311Z,97.13
2023-01-08T22:46:26.683Z,96.86
2023-01-08T22:48:54.944Z,96.54
2023-01-08T22:51:26.434Z,97.39
2023-01-08T22:53:55.341Z,97.67
2023-01-08T22:56:27.734Z,98.08
2023-01-08T22:58:55.824Z,98.46
2023-01-08T23:01:26.440Z,98.60
2023-01-08T23:03:57.927Z,99.28
2023-01-08T23:06:30.154Z,98.52
2023-01-08T23:08:58.381Z,98.48
2023-01-08T23:11:28.378Z,98.49
2023-01-08T23:13:56.837Z,98.71
2023-01-08T23:16:27.062Z,98.13
2023-01-08T23:18:55.719Z,98.36
2023-01-08T23:21:28.484Z,97.90
2023-01-08T23:23:56.554Z,98.03
2023-01-08T23:26:27.960Z,97.47
2023-01-08T23:28:57.235Z,97.31
2023-01-08T23:31:26.967Z,97.23
2023-01-08T23:33:54.908Z,96.47
2023-01-08T23:36:23.276Z,96.41
2023-01-08T23:38:53.022Z,96.12
2023-01-08T23:41:23.224Z,94.30
2023-01-08T23:43:54.608Z,94.47
2023-01-08T23:46:22.621Z,94.25
2023-01-08T23:48:53.401Z,93.57
2023-01-08T23:51:21.542Z,95.12
2023-01-08T23:53:51.386Z,93.69
2023-01-08T23:56:22.643Z,94.15
2023-01-08T23:58:53.111Z,92.98
